createdAt,value
2019-01-15T00:00:34.826Z,0
2019-01-15T00:01:44.924Z,0
2019-01-15T00:02:54.783Z,0
2019-01-15T00:04:04.894Z,0
2019-01-15T00:05:14.997Z,0
2019-01-15T00:06:25.118Z,0
2019-01-15T00:07:35.244Z,0
2019-01-15T00:08:45.336Z,0
2019-01-15T00:09:55.474Z,0
2019-01-15T00:11:05.596Z,0
2019-01-15T00:12:15.091Z,0
2019-01-15T00:13:25.185Z,0
2019-01-15T00:14:35.283Z,0
2019-01-15T00:15:45.389Z,0
2019-01-15T00:16:55.499Z,0
2019-01-15T00:18:05.608Z,0
2019-01-15T00:19:15.741Z,0
2019-01-15T00:20:25.838Z,0
2019-01-15T00:21:35.949Z,0
2019-01-15T00:22:46.056Z,0
2019-01-15T00:23:56.180Z,0
2019-01-15T00:25:06.276Z,0
2019-01-15T00:26:16.392Z,0
2019-01-15T00:27:26.491Z,0
2019-01-15T00:28:36.597Z,0
2019-01-15T00:29:46.713Z,0
2019-01-15T00:30:56.825Z,0
2019-01-15T00:32:06.950Z,0
2019-01-15T00:33:17.064Z,0
2019-01-15T00:34:26.957Z,0
2019-01-15T00:35:37.062Z,0
2019-01-15T00:36:47.164Z,0
2019-01-15T00:37:57.261Z,0
2019-01-15T00:39:07.363Z,0
2019-01-15T00:40:17.492Z,0
2019-01-15T00:41:27.602Z,0
2019-01-15T00:42:37.699Z,0
2019-01-15T00:43:47.860Z,0
2019-01-15T00:44:57.989Z,0
2019-01-15T00:46:08.301Z,0
2019-01-15T00:47:18.408Z,0
2019-01-15T00:48:28.517Z,0
2019-01-15T00:49:38.639Z,0
2019-01-15T00:50:48.738Z,0
2019-01-15T00:51:58.836Z,0
2019-01-15T00:53:08.961Z,0
2019-01-15T00:54:18.821Z,0
2019-01-15T00:55:28.931Z,0
2019-01-15T00:56:39.027Z,0
2019-01-15T00:57:49.136Z,0
2019-01-15T00:58:59.232Z,0
2019-01-15T01:00:09.332Z,0
2019-01-15T01:01:19.426Z,0
2019-01-15T01:02:29.526Z,0
2019-01-15T01:03:39.627Z,0
2019-01-15T01:04:49.729Z,0
2019-01-15T01:05:59.833Z,0
2019-01-15T01:07:09.941Z,0
2019-01-15T01:08:20.034Z,0
2019-01-15T01:09:30.238Z,0
2019-01-15T01:10:40.329Z,0
2019-01-15T01:11:50.168Z,0
2019-01-15T01:13:00.272Z,0
2019-01-15T01:14:10.381Z,0
2019-01-15T01:15:20.473Z,0
2019-01-15T01:16:30.571Z,0
2019-01-15T01:17:40.717Z,0
2019-01-15T01:18:50.876Z,0
2019-01-15T01:20:00.984Z,0
2019-01-15T01:21:11.089Z,0
2019-01-15T01:22:21.188Z,0
2019-01-15T01:23:31.500Z,0
2019-01-15T01:24:41.608Z,0
2019-01-15T01:25:51.703Z,0
2019-01-15T01:27:01.823Z,0
2019-01-15T01:28:11.688Z,0
2019-01-15T01:29:21.797Z,0
2019-01-15T01:30:31.903Z,0
2019-01-15T01:31:42.008Z,0
2019-01-15T01:32:52.120Z,0
2019-01-15T01:34:02.207Z,0
2019-01-15T01:35:12.313Z,0
2019-01-15T01:36:22.410Z,0
2019-01-15T01:37:32.262Z,0
2019-01-15T01:38:42.376Z,0
2019-01-15T01:39:52.479Z,0
2019-01-15T01:41:02.331Z,0
2019-01-15T01:42:12.071Z,0
2019-01-15T01:43:22.228Z,0
2019-01-15T01:44:32.333Z,0
2019-01-15T01:45:42.448Z,0
2019-01-15T01:46:52.544Z,0
2019-01-15T01:48:02.393Z,0
2019-01-15T01:49:12.500Z,0
2019-01-15T01:50:22.591Z,0
2019-01-15T01:51:32.754Z,0
2019-01-15T01:52:42.861Z,0
2019-01-15T01:53:52.956Z,0
2019-01-15T01:55:03.059Z,0
2019-01-15T01:56:13.164Z,0
2019-01-15T01:57:23.259Z,0
2019-01-15T01:58:33.373Z,0
2019-01-15T01:59:43.462Z,0
2019-01-15T02:00:53.562Z,0
2019-01-15T02:02:03.659Z,0
2019-01-15T02:03:13.751Z,0
2019-01-15T02:04:23.934Z,0
2019-01-15T02:05:34.040Z,0
2019-01-15T02:06:44.136Z,0
2019-01-15T02:07:54.236Z,0
2019-01-15T02:09:04.350Z,0
2019-01-15T02:10:14.446Z,0
2019-01-15T02:11:24.294Z,0
2019-01-15T02:12:41.617Z,0
2019-01-15T02:13:52.169Z,0
2019-01-15T02:15:02.266Z,0
2019-01-15T02:16:12.374Z,0
2019-01-15T02:17:22.468Z,0
2019-01-15T02:18:32.553Z,0
2019-01-15T02:19:42.649Z,0
2019-01-15T02:20:52.752Z,0
2019-01-15T02:22:02.866Z,0
2019-01-15T02:23:12.970Z,0
2019-01-15T02:24:22.571Z,0
2019-01-15T02:25:32.676Z,0
2019-01-15T02:26:42.802Z,0
2019-01-15T02:27:52.753Z,0
2019-01-15T02:29:02.613Z,0
2019-01-15T02:30:12.721Z,0
2019-01-15T02:31:22.830Z,0
2019-01-15T02:32:32.931Z,0
2019-01-15T02:33:43.033Z,0
2019-01-15T02:34:52.952Z,0
2019-01-15T02:36:03.067Z,0
2019-01-15T02:37:13.166Z,0
2019-01-15T02:38:23.248Z,0
2019-01-15T02:39:33.365Z,0
2019-01-15T02:40:43.457Z,0
2019-01-15T02:41:53.298Z,0
2019-01-15T02:43:03.395Z,0
2019-01-15T02:44:13.494Z,0
2019-01-15T02:45:23.587Z,0
2019-01-15T02:46:33.707Z,0
2019-01-15T02:47:43.823Z,0
2019-01-15T02:48:53.933Z,0
2019-01-15T02:50:04.056Z,0
2019-01-15T02:51:14.156Z,0
2019-01-15T02:52:24.014Z,0
2019-01-15T02:53:34.114Z,0
2019-01-15T02:54:44.938Z,0
2019-01-15T02:55:55.080Z,0
2019-01-15T02:57:05.182Z,0
2019-01-15T02:58:15.288Z,0
2019-01-15T02:59:25.383Z,0
2019-01-15T03:00:35.494Z,0
2019-01-15T03:01:45.607Z,0
2019-01-15T03:02:55.720Z,0
2019-01-15T03:04:05.816Z,0
2019-01-15T03:05:15.938Z,0
2019-01-15T03:06:26.034Z,0
2019-01-15T03:07:36.239Z,0
2019-01-15T03:08:46.363Z,0
2019-01-15T03:09:56.468Z,0
2019-01-15T03:11:06.586Z,0
2019-01-15T03:12:16.692Z,0
2019-01-15T03:13:26.798Z,0
2019-01-15T03:14:36.899Z,0
2019-01-15T03:15:47.036Z,0
2019-01-15T03:16:56.889Z,0
2019-01-15T03:18:07.008Z,0
2019-01-15T03:19:17.115Z,0
2019-01-15T03:20:26.969Z,0
2019-01-15T03:21:37.070Z,0
2019-01-15T03:22:47.177Z,0
2019-01-15T03:23:57.485Z,0
2019-01-15T03:25:07.627Z,0
2019-01-15T03:26:17.728Z,0
2019-01-15T03:27:27.842Z,0
2019-01-15T03:28:37.953Z,0
2019-01-15T03:29:48.067Z,0
2019-01-15T03:30:58.169Z,0
2019-01-15T03:32:08.358Z,0
2019-01-15T03:33:18.488Z,0
2019-01-15T03:34:28.615Z,0
2019-01-15T03:35:38.713Z,0
2019-01-15T03:36:48.823Z,0
2019-01-15T03:37:58.929Z,0
2019-01-15T03:39:09.027Z,0
2019-01-15T03:40:19.187Z,0
2019-01-15T03:41:29.305Z,0
2019-01-15T03:42:39.414Z,0
2019-01-15T03:43:49.518Z,0
2019-01-15T03:44:59.628Z,0
2019-01-15T03:46:11.815Z,0
2019-01-15T03:47:22.905Z,0
2019-01-15T03:48:33.016Z,0
2019-01-15T03:49:43.142Z,0
2019-01-15T03:50:53.295Z,0
2019-01-15T03:52:03.395Z,0
2019-01-15T03:53:13.490Z,0
2019-01-15T03:54:23.596Z,0
2019-01-15T03:55:33.701Z,0
2019-01-15T03:56:43.806Z,0
2019-01-15T03:57:53.899Z,0
2019-01-15T03:59:04.022Z,0
2019-01-15T04:00:14.121Z,0
2019-01-15T04:01:24.215Z,0
2019-01-15T04:02:34.320Z,0
2019-01-15T04:03:44.172Z,0
2019-01-15T04:04:54.017Z,0
2019-01-15T04:06:04.136Z,0
2019-01-15T04:07:14.250Z,0
2019-01-15T04:08:24.356Z,0
2019-01-15T04:09:34.462Z,0
2019-01-15T04:10:44.558Z,0
2019-01-15T04:11:54.680Z,0
2019-01-15T04:13:11.139Z,0
2019-01-15T04:14:21.138Z,0
2019-01-15T04:15:31.263Z,0
2019-01-15T04:16:41.356Z,0
2019-01-15T04:17:51.558Z,0
2019-01-15T04:19:01.688Z,0
2019-01-15T04:20:11.801Z,0
2019-01-15T04:21:21.900Z,0
2019-01-15T04:22:32.011Z,0
2019-01-15T04:23:42.325Z,0
2019-01-15T04:24:52.710Z,0
2019-01-15T04:26:02.827Z,0
2019-01-15T04:27:12.991Z,0
2019-01-15T04:28:23.123Z,0
2019-01-15T04:29:33.225Z,0
2019-01-15T04:30:43.340Z,0
2019-01-15T04:31:53.450Z,0
2019-01-15T04:33:03.315Z,0
2019-01-15T04:34:13.422Z,0
2019-01-15T04:35:23.541Z,0
2019-01-15T04:36:33.646Z,0
2019-01-15T04:37:43.770Z,0
2019-01-15T04:38:53.881Z,0
2019-01-15T04:40:03.993Z,0
2019-01-15T04:41:14.112Z,0
2019-01-15T04:42:24.202Z,0
2019-01-15T04:43:34.333Z,0
2019-01-15T04:44:44.448Z,0
2019-01-15T04:45:54.566Z,0
2019-01-15T04:47:04.678Z,0
2019-01-15T04:48:14.781Z,0
2019-01-15T04:49:24.915Z,0
2019-01-15T04:50:35.017Z,0
2019-01-15T04:51:44.859Z,0
2019-01-15T04:52:54.957Z,0
2019-01-15T04:54:05.080Z,0
2019-01-15T04:55:15.208Z,0
2019-01-15T04:56:25.342Z,0
2019-01-15T04:57:35.464Z,0
2019-01-15T04:58:46.426Z,0
2019-01-15T04:59:56.556Z,0
2019-01-15T05:01:06.672Z,0
2019-01-15T05:02:16.775Z,0
2019-01-15T05:03:26.898Z,0
2019-01-15T05:04:37.001Z,0
2019-01-15T05:05:47.107Z,0
2019-01-15T05:06:57.194Z,0
2019-01-15T05:08:07.301Z,0
2019-01-15T05:09:18.533Z,0
2019-01-15T05:10:28.703Z,0
2019-01-15T05:11:38.801Z,0
2019-01-15T05:12:48.917Z,0
2019-01-15T05:13:59.020Z,0
2019-01-15T05:15:09.142Z,0
2019-01-15T05:16:20.634Z,0
2019-01-15T05:17:30.736Z,0
2019-01-15T05:18:40.852Z,0
2019-01-15T05:19:50.955Z,0
2019-01-15T05:21:01.913Z,0
2019-01-15T05:22:12.044Z,0
2019-01-15T05:23:22.155Z,0
2019-01-15T05:24:32.012Z,0
2019-01-15T05:25:42.128Z,0
2019-01-15T05:26:52.239Z,0
2019-01-15T05:28:02.370Z,0
2019-01-15T05:29:12.123Z,0
2019-01-15T05:30:22.235Z,0
2019-01-15T05:31:32.340Z,0
2019-01-15T05:32:42.458Z,0
2019-01-15T05:33:52.664Z,0
2019-01-15T05:35:02.773Z,0
2019-01-15T05:36:14.606Z,0
2019-01-15T05:37:24.779Z,0
2019-01-15T05:38:34.634Z,0
2019-01-15T05:39:44.720Z,0
2019-01-15T05:40:54.832Z,0
2019-01-15T05:42:04.946Z,0
2019-01-15T05:43:15.058Z,0
2019-01-15T05:44:25.167Z,0
2019-01-15T05:45:35.077Z,0
2019-01-15T05:46:45.200Z,0
2019-01-15T05:47:55.299Z,0
2019-01-15T05:49:05.407Z,0
2019-01-15T05:50:15.515Z,0
2019-01-15T05:51:25.354Z,0
2019-01-15T05:52:35.478Z,0
2019-01-15T05:53:45.580Z,0
2019-01-15T05:54:55.690Z,0
2019-01-15T05:56:05.863Z,0
2019-01-15T05:57:16.938Z,0
2019-01-15T05:58:26.800Z,0
2019-01-15T05:59:36.893Z,0
2019-01-15T06:00:46.811Z,0
2019-01-15T06:01:56.915Z,0
2019-01-15T06:03:07.026Z,0
2019-01-15T06:04:17.130Z,0
2019-01-15T06:05:27.260Z,0
2019-01-15T06:06:37.364Z,0
2019-01-15T06:07:47.466Z,0
2019-01-15T06:08:57.576Z,0
2019-01-15T06:10:07.693Z,0
2019-01-15T06:11:17.805Z,0
2019-01-15T06:12:27.901Z,0
2019-01-15T06:13:44.984Z,0
2019-01-15T06:14:55.086Z,0
2019-01-15T06:16:05.264Z,0
2019-01-15T06:17:15.101Z,0
2019-01-15T06:18:25.198Z,0
2019-01-15T06:19:35.305Z,0
2019-01-15T06:20:45.405Z,0
2019-01-15T06:21:57.141Z,0
2019-01-15T06:23:07.329Z,0
2019-01-15T06:24:17.434Z,0
2019-01-15T06:25:27.538Z,0
2019-01-15T06:26:37.618Z,0
2019-01-15T06:27:47.715Z,0
2019-01-15T06:28:57.814Z,0
2019-01-15T06:30:07.954Z,0
2019-01-15T06:31:18.045Z,0
2019-01-15T06:32:28.159Z,0
2019-01-15T06:33:38.272Z,0
2019-01-15T06:34:48.404Z,0
2019-01-15T06:35:58.540Z,0
2019-01-15T06:37:08.663Z,0
2019-01-15T06:38:18.783Z,0
2019-01-15T06:39:29.052Z,0
2019-01-15T06:40:39.165Z,4
2019-01-15T06:41:49.266Z,4
2019-01-15T06:42:59.388Z,0
2019-01-15T06:44:09.490Z,4
2019-01-15T06:45:19.609Z,4
2019-01-15T06:46:29.710Z,4
2019-01-15T06:47:39.818Z,4
2019-01-15T06:48:49.916Z,8
2019-01-15T06:50:00.010Z,4
2019-01-15T06:51:10.116Z,8
2019-01-15T06:52:20.235Z,12
2019-01-15T06:53:30.336Z,16
2019-01-15T06:54:40.075Z,16
2019-01-15T06:55:50.184Z,16
2019-01-15T06:57:00.301Z,20
2019-01-15T06:58:10.638Z,24
2019-01-15T06:59:20.738Z,32
2019-01-15T07:00:30.835Z,32
2019-01-15T07:01:40.689Z,40
2019-01-15T07:02:50.787Z,44
2019-01-15T07:04:00.904Z,52
2019-01-15T07:05:11.007Z,60
2019-01-15T07:06:22.071Z,64
2019-01-15T07:07:32.178Z,76
2019-01-15T07:08:42.279Z,88
2019-01-15T07:09:52.880Z,96
2019-01-15T07:11:02.980Z,108
2019-01-15T07:12:13.116Z,116
2019-01-15T07:13:23.239Z,124
2019-01-15T07:14:33.340Z,132
2019-01-15T07:15:43.474Z,144
2019-01-15T07:16:53.794Z,160
2019-01-15T07:18:03.887Z,172
2019-01-15T07:19:13.986Z,188
2019-01-15T07:20:24.083Z,208
2019-01-15T07:21:34.202Z,232
2019-01-15T07:22:44.345Z,256
2019-01-15T07:23:54.441Z,284
2019-01-15T07:25:04.532Z,312
2019-01-15T07:26:15.235Z,336
2019-01-15T07:27:25.381Z,364
2019-01-15T07:28:35.232Z,396
2019-01-15T07:29:45.326Z,436
2019-01-15T07:30:55.432Z,468
2019-01-15T07:32:05.560Z,500
2019-01-15T07:33:15.652Z,528
2019-01-15T07:34:25.757Z,544
2019-01-15T07:35:36.079Z,552
2019-01-15T07:36:46.204Z,564
2019-01-15T07:37:56.304Z,576
2019-01-15T07:39:06.406Z,532
2019-01-15T07:40:16.520Z,472
2019-01-15T07:41:26.636Z,492
2019-01-15T07:42:36.739Z,484
2019-01-15T07:43:46.836Z,452
2019-01-15T07:44:56.933Z,436
2019-01-15T07:46:07.034Z,404
2019-01-15T07:47:17.161Z,356
2019-01-15T07:48:27.260Z,368
2019-01-15T07:49:37.350Z,376
2019-01-15T07:50:47.465Z,436
2019-01-15T07:51:57.579Z,448
2019-01-15T07:53:07.690Z,508
2019-01-15T07:54:17.739Z,536
2019-01-15T07:55:27.848Z,492
2019-01-15T07:56:37.938Z,536
2019-01-15T07:57:49.027Z,560
2019-01-15T07:58:59.133Z,584
2019-01-15T08:00:09.240Z,604
2019-01-15T08:01:19.352Z,556
2019-01-15T08:02:29.457Z,488
2019-01-15T08:03:39.300Z,420
2019-01-15T08:04:49.394Z,368
2019-01-15T08:06:00.015Z,352
2019-01-15T08:07:10.124Z,448
2019-01-15T08:08:20.234Z,496
2019-01-15T08:09:30.346Z,492
2019-01-15T08:10:41.665Z,564
2019-01-15T08:11:51.914Z,592
2019-01-15T08:13:02.028Z,584
2019-01-15T08:14:18.721Z,480
2019-01-15T08:15:28.830Z,400
2019-01-15T08:16:38.956Z,396
2019-01-15T08:17:49.066Z,368
2019-01-15T08:18:59.178Z,344
2019-01-15T08:20:09.278Z,356
2019-01-15T08:21:19.407Z,392
2019-01-15T08:22:29.547Z,416
2019-01-15T08:23:39.293Z,420
2019-01-15T08:24:49.415Z,416
2019-01-15T08:25:59.269Z,416
2019-01-15T08:27:09.373Z,400
2019-01-15T08:28:19.359Z,412
2019-01-15T08:29:29.115Z,452
2019-01-15T08:30:39.217Z,380
2019-01-15T08:31:49.316Z,432
2019-01-15T08:32:59.429Z,472
2019-01-15T08:34:09.525Z,440
2019-01-15T08:35:19.665Z,456
2019-01-15T08:36:31.099Z,488
2019-01-15T08:37:41.195Z,544
2019-01-15T08:38:51.069Z,560
2019-01-15T08:40:01.192Z,644
2019-01-15T08:41:11.289Z,728
2019-01-15T08:42:21.417Z,692
2019-01-15T08:43:31.580Z,760
2019-01-15T08:44:41.722Z,716
2019-01-15T08:45:55.298Z,704
2019-01-15T08:47:05.608Z,888
2019-01-15T08:48:15.730Z,1012
2019-01-15T08:49:25.843Z,1008
2019-01-15T08:50:35.955Z,940
2019-01-15T08:51:46.084Z,1008
2019-01-15T08:52:56.193Z,992
2019-01-15T08:54:06.322Z,924
2019-01-15T08:55:16.423Z,916
2019-01-15T08:56:26.566Z,992
2019-01-15T08:57:36.694Z,1012
2019-01-15T08:58:46.804Z,896
2019-01-15T08:59:56.921Z,944
2019-01-15T09:01:07.040Z,1088
2019-01-15T09:02:17.159Z,1244
2019-01-15T09:03:26.931Z,1452
2019-01-15T09:04:38.337Z,1740
2019-01-15T09:05:49.468Z,1768
2019-01-15T09:06:59.638Z,2072
2019-01-15T09:08:09.948Z,2264
2019-01-15T09:09:20.102Z,2144
2019-01-15T09:10:30.217Z,1968
2019-01-15T09:11:40.351Z,1616
2019-01-15T09:12:50.452Z,1728
2019-01-15T09:14:00.652Z,1984
2019-01-15T09:15:10.913Z,2140
2019-01-15T09:16:21.055Z,2324
2019-01-15T09:17:31.197Z,2428
2019-01-15T09:18:41.391Z,2040
2019-01-15T09:19:51.588Z,2056
2019-01-15T09:21:01.695Z,2108
2019-01-15T09:22:12.024Z,2244
2019-01-15T09:23:22.214Z,2276
2019-01-15T09:24:32.404Z,2124
2019-01-15T09:25:42.529Z,1904
2019-01-15T09:26:52.653Z,2136
2019-01-15T09:28:02.771Z,2020
2019-01-15T09:29:12.934Z,2252
2019-01-15T09:30:23.319Z,2236
2019-01-15T09:31:33.216Z,2156
2019-01-15T09:32:43.273Z,1956
2019-01-15T09:33:53.409Z,2272
2019-01-15T09:35:03.541Z,2048
2019-01-15T09:36:13.664Z,1976
2019-01-15T09:37:23.764Z,2264
2019-01-15T09:38:33.882Z,2348
2019-01-15T09:39:43.981Z,1932
2019-01-15T09:40:54.084Z,1812
2019-01-15T09:42:03.702Z,1864
2019-01-15T09:43:13.817Z,1928
2019-01-15T09:44:23.920Z,2344
2019-01-15T09:45:34.152Z,2880
2019-01-15T09:46:44.017Z,2632
2019-01-15T09:47:54.140Z,2600
2019-01-15T09:49:04.251Z,2076
2019-01-15T09:50:14.366Z,2168
2019-01-15T09:51:24.507Z,2400
2019-01-15T09:52:34.363Z,2512
2019-01-15T09:53:44.270Z,2664
2019-01-15T09:54:54.390Z,2652
2019-01-15T09:56:04.510Z,2552
2019-01-15T09:57:14.619Z,2348
2019-01-15T09:58:24.959Z,2080
2019-01-15T09:59:35.111Z,2656
2019-01-15T10:00:45.275Z,1984
2019-01-15T10:01:55.137Z,1956
2019-01-15T10:03:05.262Z,2116
2019-01-15T10:04:15.126Z,2200
2019-01-15T10:05:25.263Z,2792
2019-01-15T10:06:35.379Z,3232
2019-01-15T10:07:45.495Z,3412
2019-01-15T10:08:55.623Z,3108
2019-01-15T10:10:05.733Z,2840
2019-01-15T10:11:15.844Z,3100
2019-01-15T10:12:25.730Z,2668
2019-01-15T10:13:35.833Z,2300
2019-01-15T10:14:48.760Z,2172
2019-01-15T10:15:58.881Z,2032
2019-01-15T10:17:08.999Z,2496
2019-01-15T10:18:19.084Z,2444
2019-01-15T10:19:29.194Z,2600
2019-01-15T10:20:39.310Z,2820
2019-01-15T10:21:49.421Z,2864
2019-01-15T10:22:59.269Z,2744
2019-01-15T10:24:09.379Z,2376
2019-01-15T10:25:19.504Z,2164
2019-01-15T10:26:29.630Z,2336
2019-01-15T10:27:39.733Z,2948
2019-01-15T10:28:49.849Z,2936
2019-01-15T10:30:06.347Z,3376
2019-01-15T10:31:16.467Z,2540
2019-01-15T10:32:26.603Z,2476
2019-01-15T10:33:36.731Z,2780
2019-01-15T10:34:46.846Z,3392
2019-01-15T10:35:57.000Z,3028
2019-01-15T10:37:07.148Z,2320
2019-01-15T10:38:17.270Z,1944
2019-01-15T10:39:27.414Z,1756
2019-01-15T10:40:38.392Z,1484
2019-01-15T10:41:48.506Z,1328
2019-01-15T10:42:58.644Z,1248
2019-01-15T10:44:08.865Z,1340
2019-01-15T10:45:18.973Z,1452
2019-01-15T10:46:32.005Z,1288
2019-01-15T10:47:42.234Z,1144
2019-01-15T10:48:52.333Z,1140
2019-01-15T10:50:02.572Z,1088
2019-01-15T10:51:12.712Z,1100
2019-01-15T10:52:22.825Z,1172
2019-01-15T10:53:34.602Z,1296
2019-01-15T10:54:44.712Z,1296
2019-01-15T10:55:54.827Z,1268
2019-01-15T10:57:04.930Z,1348
2019-01-15T10:58:22.294Z,1412
2019-01-15T10:59:32.434Z,1368
2019-01-15T11:00:42.307Z,1344
2019-01-15T11:01:52.406Z,1436
2019-01-15T11:03:02.532Z,1516
2019-01-15T11:04:12.640Z,1484
2019-01-15T11:05:22.780Z,1400
2019-01-15T11:06:32.895Z,1508
2019-01-15T11:07:42.988Z,1692
2019-01-15T11:08:53.082Z,1612
2019-01-15T11:10:03.192Z,1812
2019-01-15T11:11:13.293Z,1860
2019-01-15T11:12:23.429Z,1520
2019-01-15T11:13:33.541Z,1588
2019-01-15T11:14:43.657Z,1764
2019-01-15T11:15:53.763Z,1908
2019-01-15T11:17:03.883Z,1872
2019-01-15T11:18:13.990Z,1892
2019-01-15T11:19:24.092Z,1908
2019-01-15T11:20:34.214Z,1732
2019-01-15T11:21:44.363Z,1740
2019-01-15T11:22:54.497Z,1576
2019-01-15T11:24:04.618Z,1644
2019-01-15T11:25:16.216Z,1544
2019-01-15T11:26:26.349Z,1524
2019-01-15T11:27:36.493Z,1640
2019-01-15T11:28:46.608Z,1740
2019-01-15T11:29:56.729Z,1596
2019-01-15T11:31:06.839Z,1644
2019-01-15T11:32:18.068Z,1636
2019-01-15T11:33:28.270Z,1868
2019-01-15T11:34:38.394Z,1984
2019-01-15T11:35:48.511Z,1860
2019-01-15T11:36:58.613Z,1788
2019-01-15T11:38:08.776Z,1832
2019-01-15T11:39:18.621Z,1932
2019-01-15T11:40:28.759Z,1912
2019-01-15T11:41:38.896Z,1756
2019-01-15T11:42:49.001Z,1812
2019-01-15T11:43:59.100Z,1764
2019-01-15T11:45:10.933Z,1928
2019-01-15T11:46:21.044Z,2076
2019-01-15T11:47:31.163Z,2192
2019-01-15T11:48:41.280Z,2072
2019-01-15T11:49:51.157Z,1792
2019-01-15T11:51:01.262Z,1704
2019-01-15T11:52:11.376Z,1788
2019-01-15T11:53:21.486Z,1796
2019-01-15T11:54:31.606Z,2072
2019-01-15T11:55:41.723Z,2132
2019-01-15T11:56:51.841Z,2040
2019-01-15T11:58:01.978Z,2104
2019-01-15T11:59:12.091Z,2372
2019-01-15T12:00:22.213Z,2344
2019-01-15T12:01:32.333Z,2960
2019-01-15T12:02:42.450Z,3120
2019-01-15T12:03:52.556Z,3084
2019-01-15T12:05:02.659Z,3324
2019-01-15T12:06:12.977Z,2748
2019-01-15T12:07:23.095Z,2332
2019-01-15T12:08:33.205Z,2256
2019-01-15T12:09:43.528Z,2652
2019-01-15T12:10:53.825Z,2868
2019-01-15T12:12:03.945Z,2584
2019-01-15T12:13:14.076Z,2716
2019-01-15T12:14:24.255Z,2572
2019-01-15T12:15:34.368Z,2568
2019-01-15T12:16:44.471Z,2140
2019-01-15T12:17:54.591Z,1960
2019-01-15T12:19:04.681Z,2064
2019-01-15T12:20:14.860Z,2120
2019-01-15T12:21:25.010Z,2512
2019-01-15T12:22:35.125Z,3252
2019-01-15T12:23:45.059Z,3692
2019-01-15T12:24:55.178Z,3140
2019-01-15T12:26:05.297Z,3016
2019-01-15T12:27:15.141Z,2944
2019-01-15T12:28:25.240Z,3492
2019-01-15T12:29:35.081Z,2964
2019-01-15T12:30:45.215Z,3132
2019-01-15T12:31:55.330Z,3052
2019-01-15T12:33:05.458Z,3060
2019-01-15T12:34:15.582Z,3016
2019-01-15T12:35:25.691Z,3112
2019-01-15T12:36:35.797Z,3000
2019-01-15T12:37:45.584Z,2828
2019-01-15T12:38:55.713Z,2896
2019-01-15T12:40:05.833Z,2556
2019-01-15T12:41:16.013Z,2288
2019-01-15T12:42:26.126Z,2556
2019-01-15T12:43:36.265Z,2460
2019-01-15T12:44:46.157Z,2564
2019-01-15T12:45:56.295Z,2420
2019-01-15T12:47:06.627Z,2440
2019-01-15T12:48:16.763Z,2420
2019-01-15T12:49:26.918Z,2232
2019-01-15T12:50:37.044Z,2424
2019-01-15T12:51:47.177Z,2064
2019-01-15T12:52:57.288Z,1924
2019-01-15T12:54:07.417Z,1636
2019-01-15T12:55:17.556Z,1552
2019-01-15T12:56:27.661Z,1252
2019-01-15T12:57:37.812Z,1160
2019-01-15T12:58:47.965Z,1240
2019-01-15T12:59:58.085Z,1372
2019-01-15T13:01:08.278Z,1388
2019-01-15T13:02:18.092Z,1272
2019-01-15T13:03:28.222Z,1484
2019-01-15T13:04:38.362Z,1456
2019-01-15T13:05:48.510Z,1724
2019-01-15T13:06:58.284Z,1540
2019-01-15T13:08:08.394Z,1412
2019-01-15T13:09:18.517Z,1652
2019-01-15T13:10:28.634Z,2060
2019-01-15T13:11:38.764Z,2104
2019-01-15T13:12:48.886Z,2024
2019-01-15T13:13:58.989Z,2044
2019-01-15T13:15:09.109Z,2320
2019-01-15T13:16:19.280Z,2640
2019-01-15T13:17:29.437Z,2444
2019-01-15T13:18:39.584Z,2048
2019-01-15T13:19:49.210Z,1912
2019-01-15T13:20:59.325Z,1736
2019-01-15T13:22:09.455Z,1664
2019-01-15T13:23:19.585Z,1436
2019-01-15T13:24:29.744Z,1332
2019-01-15T13:25:39.858Z,1448
2019-01-15T13:26:49.745Z,1244
2019-01-15T13:27:59.850Z,1244
2019-01-15T13:29:09.737Z,1132
2019-01-15T13:30:19.897Z,1316
2019-01-15T13:31:30.109Z,1168
2019-01-15T13:32:40.291Z,1144
2019-01-15T13:33:50.422Z,976
2019-01-15T13:35:00.558Z,1024
2019-01-15T13:36:10.673Z,904
2019-01-15T13:37:20.793Z,868
2019-01-15T13:38:30.929Z,1004
2019-01-15T13:39:40.760Z,1028
2019-01-15T13:40:50.950Z,1068
2019-01-15T13:42:01.063Z,1296
2019-01-15T13:43:11.176Z,1336
2019-01-15T13:44:21.318Z,1264
2019-01-15T13:45:31.467Z,1328
2019-01-15T13:46:41.589Z,1368
2019-01-15T13:47:51.461Z,1260
2019-01-15T13:49:01.592Z,1000
2019-01-15T13:50:11.474Z,824
2019-01-15T13:51:21.636Z,812
2019-01-15T13:52:31.741Z,912
2019-01-15T13:53:41.869Z,768
2019-01-15T13:54:52.003Z,748
2019-01-15T13:56:02.120Z,668
2019-01-15T13:57:12.246Z,616
2019-01-15T13:58:22.367Z,644
2019-01-15T13:59:32.494Z,632
2019-01-15T14:00:42.648Z,616
2019-01-15T14:01:52.766Z,540
2019-01-15T14:03:02.918Z,612
2019-01-15T14:04:13.047Z,612
2019-01-15T14:05:23.182Z,592
2019-01-15T14:06:33.314Z,596
2019-01-15T14:07:43.187Z,612
2019-01-15T14:08:53.325Z,628
2019-01-15T14:10:03.454Z,720
2019-01-15T14:11:13.566Z,780
2019-01-15T14:12:23.695Z,1140
2019-01-15T14:13:33.836Z,1272
2019-01-15T14:14:43.971Z,1328
2019-01-15T14:15:56.421Z,1364
2019-01-15T14:17:06.539Z,1332
2019-01-15T14:18:16.313Z,1336
2019-01-15T14:19:26.436Z,1720
2019-01-15T14:20:36.569Z,1336
2019-01-15T14:21:46.071Z,1440
2019-01-15T14:22:56.204Z,1672
2019-01-15T14:24:06.375Z,1168
2019-01-15T14:25:16.491Z,1228
2019-01-15T14:26:26.634Z,1128
2019-01-15T14:27:36.777Z,976
2019-01-15T14:28:46.910Z,852
2019-01-15T14:29:57.055Z,780
2019-01-15T14:31:08.005Z,716
2019-01-15T14:32:18.374Z,688
2019-01-15T14:33:28.495Z,676
2019-01-15T14:34:38.360Z,748
2019-01-15T14:35:48.506Z,588
2019-01-15T14:36:58.630Z,616
2019-01-15T14:38:08.871Z,648
2019-01-15T14:39:19.016Z,580
2019-01-15T14:40:29.159Z,492
2019-01-15T14:41:39.279Z,552
2019-01-15T14:42:50.794Z,600
2019-01-15T14:44:00.925Z,596
2019-01-15T14:45:11.046Z,552
2019-01-15T14:46:21.210Z,488
2019-01-15T14:47:30.981Z,532
2019-01-15T14:48:41.128Z,624
2019-01-15T14:49:51.266Z,596
2019-01-15T14:51:01.416Z,636
2019-01-15T14:52:11.541Z,472
2019-01-15T14:53:21.677Z,420
2019-01-15T14:54:31.645Z,352
2019-01-15T14:55:41.825Z,380
2019-01-15T14:56:51.948Z,288
2019-01-15T14:58:02.088Z,268
2019-01-15T14:59:12.208Z,268
2019-01-15T15:00:23.325Z,196
2019-01-15T15:01:33.465Z,184
2019-01-15T15:02:43.586Z,136
2019-01-15T15:03:53.701Z,176
2019-01-15T15:05:03.269Z,172
2019-01-15T15:06:13.405Z,188
2019-01-15T15:07:23.564Z,188
2019-01-15T15:08:33.753Z,160
2019-01-15T15:09:43.913Z,172
2019-01-15T15:10:54.047Z,160
2019-01-15T15:12:04.176Z,168
2019-01-15T15:13:14.329Z,192
2019-01-15T15:14:24.438Z,184
2019-01-15T15:15:34.609Z,176
2019-01-15T15:16:44.758Z,156
2019-01-15T15:17:54.889Z,152
2019-01-15T15:19:05.024Z,104
2019-01-15T15:20:15.148Z,100
2019-01-15T15:21:25.295Z,80
2019-01-15T15:22:35.049Z,76
2019-01-15T15:23:45.206Z,68
2019-01-15T15:24:55.337Z,72
2019-01-15T15:26:05.490Z,68
2019-01-15T15:27:15.623Z,64
2019-01-15T15:28:25.793Z,68
2019-01-15T15:29:35.946Z,68
2019-01-15T15:30:46.092Z,64
2019-01-15T15:31:56.240Z,68
2019-01-15T15:33:06.356Z,52
2019-01-15T15:34:16.109Z,40
2019-01-15T15:35:26.257Z,32
2019-01-15T15:36:36.402Z,28
2019-01-15T15:37:46.549Z,20
2019-01-15T15:38:56.486Z,20
2019-01-15T15:40:06.635Z,24
2019-01-15T15:41:16.779Z,20
2019-01-15T15:42:26.905Z,20
2019-01-15T15:43:37.089Z,16
2019-01-15T15:44:47.226Z,12
2019-01-15T15:45:57.405Z,12
2019-01-15T15:47:07.545Z,8
2019-01-15T15:48:17.716Z,8
2019-01-15T15:49:27.879Z,12
2019-01-15T15:50:38.038Z,8
2019-01-15T15:51:48.182Z,4
2019-01-15T15:52:58.338Z,4
2019-01-15T15:54:08.484Z,4
2019-01-15T15:55:18.834Z,4
2019-01-15T15:56:29.001Z,4
2019-01-15T15:57:39.156Z,0
2019-01-15T15:58:50.299Z,4
2019-01-15T16:00:00.461Z,0
2019-01-15T16:01:10.615Z,4
2019-01-15T16:02:20.764Z,0
2019-01-15T16:03:30.920Z,0
2019-01-15T16:04:41.089Z,0
2019-01-15T16:05:51.233Z,0
2019-01-15T16:07:01.397Z,0
2019-01-15T16:08:11.590Z,0
2019-01-15T16:09:21.770Z,0
2019-01-15T16:10:31.948Z,0
2019-01-15T16:11:41.572Z,0
2019-01-15T16:12:51.724Z,0
2019-01-15T16:14:01.897Z,0
2019-01-15T16:15:12.072Z,0
2019-01-15T16:16:26.441Z,0
2019-01-15T16:17:36.627Z,0
2019-01-15T16:18:46.987Z,0
2019-01-15T16:19:57.193Z,0
2019-01-15T16:21:07.373Z,0
2019-01-15T16:22:17.554Z,0
2019-01-15T16:23:27.698Z,0
2019-01-15T16:24:37.845Z,0
2019-01-15T16:25:48.000Z,0
2019-01-15T16:26:58.175Z,0
2019-01-15T16:28:08.362Z,0
2019-01-15T16:29:18.487Z,0